sensor_id;sensor_type;location;lat;lon;timestamp;P1;durP1;ratioP1;P2;durP2;ratioP2
71462;SDS011;59266;52.608;13.260;2023-05-18T00:01:20;6.85;;;1.70;;
71462;SDS011;59266;52.608;13.260;2023-05-18T00:03:47;9.13;;;2.10;;
71462;SDS011;59266;52.608;13.260;2023-05-18T00:06:15;6.97;;;2.22;;
71462;SDS011;59266;52.608;13.260;2023-05-18T00:08:42;9.25;;;1.92;;
71462;SDS011;59266;52.608;13.260;2023-05-18T00:11:09;7.57;;;2.60;;
71462;SDS011;59266;52.608;13.260;2023-05-18T00:13:35;7.32;;;1.88;;
71462;SDS011;59266;52.608;13.260;2023-05-18T00:16:02;9.82;;;2.20;;
71462;SDS011;59266;52.608;13.260;2023-05-18T00:18:29;7.22;;;2.10;;
71462;SDS011;59266;52.608;13.260;2023-05-18T00:20:56;9.00;;;2.20;;
71462;SDS011;59266;52.608;13.260;2023-05-18T00:23:29;8.27;;;1.85;;
71462;SDS011;59266;52.608;13.260;2023-05-18T00:26:00;7.53;;;1.60;;
71462;SDS011;59266;52.608;13.260;2023-05-18T00:28:27;8.48;;;1.85;;
71462;SDS011;59266;52.608;13.260;2023-05-18T00:30:54;8.10;;;2.22;;
71462;SDS011;59266;52.608;13.260;2023-05-18T00:33:21;8.93;;;2.13;;
71462;SDS011;59266;52.608;13.260;2023-05-18T00:35:49;6.78;;;2.15;;
71462;SDS011;59266;52.608;13.260;2023-05-18T00:38:15;9.90;;;2.20;;
71462;SDS011;59266;52.608;13.260;2023-05-18T00:40:42;9.15;;;2.60;;
71462;SDS011;59266;52.608;13.260;2023-05-18T00:43:09;8.30;;;2.50;;
71462;SDS011;59266;52.608;13.260;2023-05-18T00:45:36;12.55;;;2.40;;
71462;SDS011;59266;52.608;13.260;2023-05-18T00:48:05;8.02;;;1.95;;
71462;SDS011;59266;52.608;13.260;2023-05-18T00:50:32;6.75;;;1.90;;
71462;SDS011;59266;52.608;13.260;2023-05-18T00:52:59;8.40;;;2.15;;
71462;SDS011;59266;52.608;13.260;2023-05-18T00:55:26;7.70;;;1.98;;
71462;SDS011;59266;52.608;13.260;2023-05-18T00:57:54;11.60;;;2.40;;
71462;SDS011;59266;52.608;13.260;2023-05-18T01:00:21;12.25;;;2.88;;
71462;SDS011;59266;52.608;13.260;2023-05-18T01:02:49;9.73;;;2.35;;
71462;SDS011;59266;52.608;13.260;2023-05-18T01:05:17;7.32;;;2.50;;
71462;SDS011;59266;52.608;13.260;2023-05-18T01:07:45;7.15;;;2.30;;
71462;SDS011;59266;52.608;13.260;2023-05-18T01:10:12;9.20;;;2.25;;
71462;SDS011;59266;52.608;13.260;2023-05-18T01:12:44;7.38;;;2.17;;
71462;SDS011;59266;52.608;13.260;2023-05-18T01:15:19;8.10;;;2.10;;
71462;SDS011;59266;52.608;13.260;2023-05-18T01:24:03;10.10;;;2.20;;
71462;SDS011;59266;52.608;13.260;2023-05-18T01:26:44;6.82;;;2.30;;
71462;SDS011;59266;52.608;13.260;2023-05-18T01:29:15;10.65;;;2.72;;
71462;SDS011;59266;52.608;13.260;2023-05-18T01:31:43;7.40;;;2.30;;
71462;SDS011;59266;52.608;13.260;2023-05-18T01:34:10;8.00;;;2.30;;
71462;SDS011;59266;52.608;13.260;2023-05-18T01:36:36;6.10;;;1.83;;
71462;SDS011;59266;52.608;13.260;2023-05-18T01:39:03;8.98;;;2.45;;
71462;SDS011;59266;52.608;13.260;2023-05-18T01:41:31;10.10;;;2.80;;
71462;SDS011;59266;52.608;13.260;2023-05-18T01:44:14;9.95;;;2.70;;
71462;SDS011;59266;52.608;13.260;2023-05-18T01:46:52;9.57;;;2.17;;
71462;SDS011;59266;52.608;13.260;2023-05-18T01:49:26;8.38;;;2.05;;
71462;SDS011;59266;52.608;13.260;2023-05-18T01:51:57;5.40;;;2.10;;
71462;SDS011;59266;52.608;13.260;2023-05-18T01:54:29;9.88;;;1.92;;
71462;SDS011;59266;52.608;13.260;2023-05-18T01:56:57;9.90;;;2.50;;
71462;SDS011;59266;52.608;13.260;2023-05-18T01:59:27;6.72;;;2.25;;
71462;SDS011;59266;52.608;13.260;2023-05-18T02:01:56;9.32;;;2.30;;
71462;SDS011;59266;52.608;13.260;2023-05-18T02:04:27;6.22;;;2.10;;
71462;SDS011;59266;52.608;13.260;2023-05-18T02:06:54;17.48;;;3.70;;
71462;SDS011;59266;52.608;13.260;2023-05-18T02:09:21;9.07;;;2.60;;
71462;SDS011;59266;52.608;13.260;2023-05-18T02:11:48;7.45;;;2.70;;
71462;SDS011;59266;52.608;13.260;2023-05-18T02:14:15;7.30;;;2.55;;
71462;SDS011;59266;52.608;13.260;2023-05-18T02:16:41;7.95;;;2.50;;
71462;SDS011;59266;52.608;13.260;2023-05-18T02:19:12;11.07;;;2.35;;
71462;SDS011;59266;52.608;13.260;2023-05-18T02:21:40;10.48;;;3.90;;
71462;SDS011;59266;52.608;13.260;2023-05-18T02:24:09;8.15;;;2.17;;
71462;SDS011;59266;52.608;13.260;2023-05-18T02:26:37;11.68;;;2.40;;
71462;SDS011;59266;52.608;13.260;2023-05-18T02:29:05;9.55;;;2.72;;
71462;SDS011;59266;52.608;13.260;2023-05-18T02:31:32;8.75;;;2.40;;
71462;SDS011;59266;52.608;13.260;2023-05-18T02:33:58;7.60;;;2.30;;
71462;SDS011;59266;52.608;13.260;2023-05-18T02:36:25;12.73;;;2.25;;
71462;SDS011;59266;52.608;13.260;2023-05-18T02:38:51;6.60;;;2.20;;
71462;SDS011;59266;52.608;13.260;2023-05-18T02:41:18;7.50;;;2.35;;
71462;SDS011;59266;52.608;13.260;2023-05-18T02:43:46;9.70;;;2.90;;
71462;SDS011;59266;52.608;13.260;2023-05-18T02:46:12;9.15;;;2.58;;
71462;SDS011;59266;52.608;13.260;2023-05-18T02:48:39;11.18;;;2.60;;
71462;SDS011;59266;52.608;13.260;2023-05-18T02:51:11;8.63;;;2.40;;
71462;SDS011;59266;52.608;13.260;2023-05-18T02:53:38;7.20;;;2.40;;
71462;SDS011;59266;52.608;13.260;2023-05-18T02:56:04;9.43;;;2.22;;
71462;SDS011;59266;52.608;13.260;2023-05-18T02:58:31;6.82;;;2.30;;
71462;SDS011;59266;52.608;13.260;2023-05-18T03:01:01;5.90;;;2.20;;
71462;SDS011;59266;52.608;13.260;2023-05-18T03:03:31;8.75;;;2.63;;
71462;SDS011;59266;52.608;13.260;2023-05-18T03:05:58;9.98;;;3.03;;
71462;SDS011;59266;52.608;13.260;2023-05-18T03:08:27;11.35;;;3.00;;
71462;SDS011;59266;52.608;13.260;2023-05-18T03:10:56;8.10;;;2.70;;
71462;SDS011;59266;52.608;13.260;2023-05-18T03:13:24;8.93;;;2.50;;
71462;SDS011;59266;52.608;13.260;2023-05-18T03:15:51;8.15;;;2.55;;
71462;SDS011;59266;52.608;13.260;2023-05-18T03:18:18;8.13;;;2.53;;
71462;SDS011;59266;52.608;13.260;2023-05-18T03:20:45;9.50;;;2.40;;
71462;SDS011;59266;52.608;13.260;2023-05-18T03:23:12;11.05;;;2.72;;
71462;SDS011;59266;52.608;13.260;2023-05-18T03:25:38;7.03;;;2.63;;
71462;SDS011;59266;52.608;13.260;2023-05-18T03:28:05;7.97;;;2.67;;
71462;SDS011;59266;52.608;13.260;2023-05-18T03:30:32;9.60;;;3.28;;
71462;SDS011;59266;52.608;13.260;2023-05-18T03:32:59;11.07;;;2.90;;
71462;SDS011;59266;52.608;13.260;2023-05-18T03:35:27;11.10;;;3.00;;
71462;SDS011;59266;52.608;13.260;2023-05-18T03:37:54;6.97;;;2.45;;
71462;SDS011;59266;52.608;13.260;2023-05-18T03:40:22;8.07;;;2.78;;
71462;SDS011;59266;52.608;13.260;2023-05-18T03:42:50;9.82;;;2.50;;
71462;SDS011;59266;52.608;13.260;2023-05-18T03:45:16;10.98;;;2.67;;
71462;SDS011;59266;52.608;13.260;2023-05-18T03:47:43;9.82;;;2.70;;
71462;SDS011;59266;52.608;13.260;2023-05-18T03:50:10;8.15;;;2.88;;
71462;SDS011;59266;52.608;13.260;2023-05-18T03:52:38;8.32;;;2.60;;
71462;SDS011;59266;52.608;13.260;2023-05-18T03:55:05;9.20;;;3.22;;
71462;SDS011;59266;52.608;13.260;2023-05-18T03:57:32;9.43;;;2.75;;
71462;SDS011;59266;52.608;13.260;2023-05-18T03:59:58;9.70;;;2.67;;
71462;SDS011;59266;52.608;13.260;2023-05-18T04:02:26;11.57;;;2.83;;
71462;SDS011;59266;52.608;13.260;2023-05-18T04:04:53;8.35;;;2.17;;
71462;SDS011;59266;52.608;13.260;2023-05-18T04:07:19;11.68;;;3.47;;
71462;SDS011;59266;52.608;13.260;2023-05-18T04:09:47;8.15;;;3.10;;
71462;SDS011;59266;52.608;13.260;2023-05-18T04:12:14;9.07;;;2.70;;
71462;SDS011;59266;52.608;13.260;2023-05-18T04:14:41;10.05;;;2.85;;
71462;SDS011;59266;52.608;13.260;2023-05-18T04:17:07;7.90;;;2.70;;
71462;SDS011;59266;52.608;13.260;2023-05-18T04:19:36;10.32;;;2.70;;
71462;SDS011;59266;52.608;13.260;2023-05-18T04:22:04;11.20;;;2.90;;
71462;SDS011;59266;52.608;13.260;2023-05-18T04:24:33;9.43;;;2.85;;
71462;SDS011;59266;52.608;13.260;2023-05-18T04:27:01;16.52;;;3.38;;
71462;SDS011;59266;52.608;13.260;2023-05-18T04:29:28;9.40;;;2.75;;
71462;SDS011;59266;52.608;13.260;2023-05-18T04:31:55;10.25;;;3.03;;
71462;SDS011;59266;52.608;13.260;2023-05-18T04:34:28;7.70;;;3.30;;
71462;SDS011;59266;52.608;13.260;2023-05-18T04:36:56;10.20;;;2.78;;
71462;SDS011;59266;52.608;13.260;2023-05-18T04:39:25;10.23;;;2.78;;
71462;SDS011;59266;52.608;13.260;2023-05-18T04:41:52;9.77;;;3.00;;
71462;SDS011;59266;52.608;13.260;2023-05-18T04:44:28;9.27;;;3.05;;
71462;SDS011;59266;52.608;13.260;2023-05-18T04:46:56;12.02;;;2.83;;
71462;SDS011;59266;52.608;13.260;2023-05-18T04:49:23;10.30;;;2.85;;
71462;SDS011;59266;52.608;13.260;2023-05-18T04:51:52;8.57;;;2.80;;
71462;SDS011;59266;52.608;13.260;2023-05-18T04:54:24;11.35;;;2.78;;
71462;SDS011;59266;52.608;13.260;2023-05-18T04:56:53;12.75;;;3.35;;
71462;SDS011;59266;52.608;13.260;2023-05-18T04:59:20;11.82;;;2.90;;
71462;SDS011;59266;52.608;13.260;2023-05-18T05:01:51;13.43;;;3.13;;
71462;SDS011;59266;52.608;13.260;2023-05-18T05:04:19;11.82;;;3.33;;
71462;SDS011;59266;52.608;13.260;2023-05-18T05:06:46;11.85;;;3.08;;
71462;SDS011;59266;52.608;13.260;2023-05-18T05:09:13;15.20;;;3.03;;
71462;SDS011;59266;52.608;13.260;2023-05-18T05:11:40;10.18;;;2.70;;
71462;SDS011;59266;52.608;13.260;2023-05-18T05:14:06;12.23;;;3.15;;
71462;SDS011;59266;52.608;13.260;2023-05-18T05:16:35;12.50;;;2.83;;
71462;SDS011;59266;52.608;13.260;2023-05-18T05:19:01;12.27;;;2.70;;
71462;SDS011;59266;52.608;13.260;2023-05-18T05:21:28;10.23;;;2.28;;
71462;SDS011;59266;52.608;13.260;2023-05-18T05:23:56;15.95;;;2.80;;
71462;SDS011;59266;52.608;13.260;2023-05-18T05:26:23;8.25;;;2.40;;
71462;SDS011;59266;52.608;13.260;2023-05-18T05:28:50;13.85;;;2.65;;
71462;SDS011;59266;52.608;13.260;2023-05-18T05:31:17;13.55;;;2.35;;
71462;SDS011;59266;52.608;13.260;2023-05-18T05:33:44;8.02;;;1.85;;
71462;SDS011;59266;52.608;13.260;2023-05-18T05:36:11;11.93;;;2.22;;
71462;SDS011;59266;52.608;13.260;2023-05-18T05:38:37;8.73;;;1.83;;
71462;SDS011;59266;52.608;13.260;2023-05-18T05:41:04;11.82;;;2.30;;
71462;SDS011;59266;52.608;13.260;2023-05-18T05:43:31;11.80;;;1.95;;
71462;SDS011;59266;52.608;13.260;2023-05-18T05:45:59;11.13;;;2.40;;
71462;SDS011;59266;52.608;13.260;2023-05-18T05:48:25;10.98;;;2.45;;
71462;SDS011;59266;52.608;13.260;2023-05-18T05:50:52;13.63;;;1.92;;
71462;SDS011;59266;52.608;13.260;2023-05-18T05:53:19;9.77;;;1.90;;
71462;SDS011;59266;52.608;13.260;2023-05-18T05:55:46;8.65;;;2.25;;
71462;SDS011;59266;52.608;13.260;2023-05-18T05:58:13;9.82;;;1.83;;
71462;SDS011;59266;52.608;13.260;2023-05-18T06:00:40;11.15;;;1.88;;
71462;SDS011;59266;52.608;13.260;2023-05-18T06:03:07;7.07;;;1.88;;
71462;SDS011;59266;52.608;13.260;2023-05-18T06:05:34;10.25;;;2.08;;
71462;SDS011;59266;52.608;13.260;2023-05-18T06:08:01;13.75;;;3.30;;
71462;SDS011;59266;52.608;13.260;2023-05-18T06:10:28;6.95;;;1.67;;
71462;SDS011;59266;52.608;13.260;2023-05-18T06:12:56;8.48;;;1.95;;
71462;SDS011;59266;52.608;13.260;2023-05-18T06:15:23;8.13;;;1.67;;
71462;SDS011;59266;52.608;13.260;2023-05-18T06:17:50;9.18;;;1.80;;
71462;SDS011;59266;52.608;13.260;2023-05-18T06:20:17;11.60;;;1.83;;
71462;SDS011;59266;52.608;13.260;2023-05-18T06:22:44;8.38;;;1.75;;
71462;SDS011;59266;52.608;13.260;2023-05-18T06:25:11;8.65;;;1.80;;
71462;SDS011;59266;52.608;13.260;2023-05-18T06:27:39;6.70;;;1.70;;
71462;SDS011;59266;52.608;13.260;2023-05-18T06:30:07;5.85;;;1.80;;
71462;SDS011;59266;52.608;13.260;2023-05-18T06:32:36;8.10;;;2.20;;
71462;SDS011;59266;52.608;13.260;2023-05-18T06:35:03;7.72;;;1.60;;
71462;SDS011;59266;52.608;13.260;2023-05-18T06:37:32;9.55;;;1.70;;
71462;SDS011;59266;52.608;13.260;2023-05-18T06:39:58;7.15;;;1.48;;
71462;SDS011;59266;52.608;13.260;2023-05-18T06:42:25;9.20;;;2.03;;
71462;SDS011;59266;52.608;13.260;2023-05-18T06:44:53;9.23;;;1.80;;
71462;SDS011;59266;52.608;13.260;2023-05-18T06:47:19;7.40;;;1.75;;
71462;SDS011;59266;52.608;13.260;2023-05-18T06:49:46;8.90;;;1.98;;
71462;SDS011;59266;52.608;13.260;2023-05-18T06:52:13;7.57;;;2.00;;
71462;SDS011;59266;52.608;13.260;2023-05-18T06:54:40;7.55;;;1.75;;
71462;SDS011;59266;52.608;13.260;2023-05-18T06:57:07;7.05;;;1.70;;
71462;SDS011;59266;52.608;13.260;2023-05-18T06:59:33;8.38;;;1.60;;
71462;SDS011;59266;52.608;13.260;2023-05-18T07:02:00;9.02;;;2.08;;
71462;SDS011;59266;52.608;13.260;2023-05-18T07:04:27;9.57;;;1.90;;
71462;SDS011;59266;52.608;13.260;2023-05-18T07:06:53;9.20;;;1.98;;
71462;SDS011;59266;52.608;13.260;2023-05-18T07:09:21;8.43;;;1.88;;
71462;SDS011;59266;52.608;13.260;2023-05-18T07:11:48;8.77;;;1.88;;
71462;SDS011;59266;52.608;13.260;2023-05-18T07:14:15;11.68;;;2.08;;
71462;SDS011;59266;52.608;13.260;2023-05-18T07:16:41;6.57;;;1.70;;
71462;SDS011;59266;52.608;13.260;2023-05-18T07:19:09;7.93;;;1.70;;
71462;SDS011;59266;52.608;13.260;2023-05-18T07:21:36;8.25;;;1.85;;
71462;SDS011;59266;52.608;13.260;2023-05-18T07:24:04;11.35;;;1.65;;
71462;SDS011;59266;52.608;13.260;2023-05-18T07:26:31;8.88;;;2.05;;
71462;SDS011;59266;52.608;13.260;2023-05-18T07:28:58;6.40;;;1.50;;
71462;SDS011;59266;52.608;13.260;2023-05-18T07:31:25;11.35;;;1.90;;
71462;SDS011;59266;52.608;13.260;2023-05-18T07:33:53;7.03;;;1.80;;
71462;SDS011;59266;52.608;13.260;2023-05-18T07:36:20;7.63;;;1.80;;
71462;SDS011;59266;52.608;13.260;2023-05-18T07:38:47;9.77;;;1.95;;
71462;SDS011;59266;52.608;13.260;2023-05-18T07:41:20;10.05;;;1.77;;
71462;SDS011;59266;52.608;13.260;2023-05-18T07:43:51;7.45;;;1.60;;
71462;SDS011;59266;52.608;13.260;2023-05-18T07:46:18;6.97;;;1.50;;
71462;SDS011;59266;52.608;13.260;2023-05-18T07:48:45;8.88;;;1.85;;
71462;SDS011;59266;52.608;13.260;2023-05-18T07:51:12;8.30;;;1.83;;
71462;SDS011;59266;52.608;13.260;2023-05-18T07:53:38;9.45;;;1.95;;
71462;SDS011;59266;52.608;13.260;2023-05-18T07:56:07;11.18;;;1.70;;
71462;SDS011;59266;52.608;13.260;2023-05-18T07:58:35;10.38;;;1.90;;
71462;SDS011;59266;52.608;13.260;2023-05-18T08:01:02;8.35;;;1.65;;
71462;SDS011;59266;52.608;13.260;2023-05-18T08:03:29;7.32;;;1.67;;
71462;SDS011;59266;52.608;13.260;2023-05-18T08:05:55;8.20;;;1.60;;
71462;SDS011;59266;52.608;13.260;2023-05-18T08:08:22;9.82;;;2.45;;
71462;SDS011;59266;52.608;13.260;2023-05-18T08:10:49;8.38;;;1.90;;
71462;SDS011;59266;52.608;13.260;2023-05-18T08:13:17;7.63;;;1.90;;
71462;SDS011;59266;52.608;13.260;2023-05-18T08:15:44;8.07;;;1.70;;
71462;SDS011;59266;52.608;13.260;2023-05-18T08:18:21;10.52;;;1.92;;
71462;SDS011;59266;52.608;13.260;2023-05-18T08:20:48;7.95;;;2.00;;
71462;SDS011;59266;52.608;13.260;2023-05-18T08:23:15;7.55;;;1.95;;
71462;SDS011;59266;52.608;13.260;2023-05-18T08:25:41;10.70;;;2.30;;
71462;SDS011;59266;52.608;13.260;2023-05-18T08:28:08;7.85;;;1.75;;
71462;SDS011;59266;52.608;13.260;2023-05-18T08:30:35;7.55;;;1.77;;
71462;SDS011;59266;52.608;13.260;2023-05-18T08:33:01;8.90;;;1.92;;
71462;SDS011;59266;52.608;13.260;2023-05-18T08:35:28;8.68;;;2.08;;
71462;SDS011;59266;52.608;13.260;2023-05-18T08:37:55;7.95;;;1.70;;
71462;SDS011;59266;52.608;13.260;2023-05-18T08:40:23;8.50;;;1.90;;
71462;SDS011;59266;52.608;13.260;2023-05-18T08:43:01;8.68;;;1.88;;
71462;SDS011;59266;52.608;13.260;2023-05-18T08:45:36;6.38;;;1.60;;
71462;SDS011;59266;52.608;13.260;2023-05-18T08:48:14;7.13;;;1.80;;
71462;SDS011;59266;52.608;13.260;2023-05-18T08:50:41;7.32;;;1.63;;
71462;SDS011;59266;52.608;13.260;2023-05-18T08:53:10;8.35;;;1.83;;
71462;SDS011;59266;52.608;13.260;2023-05-18T08:55:39;5.93;;;1.40;;
71462;SDS011;59266;52.608;13.260;2023-05-18T08:58:06;8.05;;;2.00;;
71462;SDS011;59266;52.608;13.260;2023-05-18T09:00:36;7.35;;;1.75;;
71462;SDS011;59266;52.608;13.260;2023-05-18T09:03:04;5.88;;;1.58;;
71462;SDS011;59266;52.608;13.260;2023-05-18T09:05:31;6.85;;;1.88;;
71462;SDS011;59266;52.608;13.260;2023-05-18T09:08:02;7.72;;;1.85;;
71462;SDS011;59266;52.608;13.260;2023-05-18T09:10:31;5.80;;;1.83;;
71462;SDS011;59266;52.608;13.260;2023-05-18T09:12:59;6.57;;;1.60;;
71462;SDS011;59266;52.608;13.260;2023-05-18T09:15:27;7.55;;;1.80;;
71462;SDS011;59266;52.608;13.260;2023-05-18T09:17:54;8.88;;;2.13;;
71462;SDS011;59266;52.608;13.260;2023-05-18T09:20:21;9.30;;;1.67;;
71462;SDS011;59266;52.608;13.260;2023-05-18T09:22:51;8.30;;;1.70;;
71462;SDS011;59266;52.608;13.260;2023-05-18T09:25:19;11.02;;;2.10;;
71462;SDS011;59266;52.608;13.260;2023-05-18T09:27:52;9.20;;;2.03;;
71462;SDS011;59266;52.608;13.260;2023-05-18T09:30:23;5.38;;;1.55;;
71462;SDS011;59266;52.608;13.260;2023-05-18T09:32:50;7.30;;;1.70;;
71462;SDS011;59266;52.608;13.260;2023-05-18T09:35:18;9.95;;;1.90;;
71462;SDS011;59266;52.608;13.260;2023-05-18T09:37:44;8.38;;;1.60;;
71462;SDS011;59266;52.608;13.260;2023-05-18T09:40:12;10.65;;;2.03;;
71462;SDS011;59266;52.608;13.260;2023-05-18T09:42:39;6.85;;;1.73;;
71462;SDS011;59266;52.608;13.260;2023-05-18T09:45:20;8.15;;;1.52;;
71462;SDS011;59266;52.608;13.260;2023-05-18T09:47:52;9.70;;;2.00;;
71462;SDS011;59266;52.608;13.260;2023-05-18T09:50:19;7.13;;;1.80;;
71462;SDS011;59266;52.608;13.260;2023-05-18T09:52:47;6.53;;;1.80;;
71462;SDS011;59266;52.608;13.260;2023-05-18T09:55:15;8.10;;;1.58;;
71462;SDS011;59266;52.608;13.260;2023-05-18T09:57:43;5.95;;;1.50;;
71462;SDS011;59266;52.608;13.260;2023-05-18T10:00:16;9.02;;;1.70;;
71462;SDS011;59266;52.608;13.260;2023-05-18T10:02:46;6.85;;;1.50;;
71462;SDS011;59266;52.608;13.260;2023-05-18T10:07:46;7.88;;;1.48;;
71462;SDS011;59266;52.608;13.260;2023-05-18T10:10:18;5.93;;;1.42;;
71462;SDS011;59266;52.608;13.260;2023-05-18T10:12:46;6.93;;;1.80;;
71462;SDS011;59266;52.608;13.260;2023-05-18T10:15:16;6.05;;;1.35;;
71462;SDS011;59266;52.608;13.260;2023-05-18T10:17:45;8.48;;;1.65;;
71462;SDS011;59266;52.608;13.260;2023-05-18T10:20:14;8.27;;;1.55;;
71462;SDS011;59266;52.608;13.260;2023-05-18T10:22:47;10.27;;;1.60;;
71462;SDS011;59266;52.608;13.260;2023-05-18T10:25:17;7.20;;;1.50;;
71462;SDS011;59266;52.608;13.260;2023-05-18T10:27:45;6.95;;;1.70;;
71462;SDS011;59266;52.608;13.260;2023-05-18T10:30:14;7.03;;;1.60;;
71462;SDS011;59266;52.608;13.260;2023-05-18T10:32:43;8.43;;;1.80;;
71462;SDS011;59266;52.608;13.260;2023-05-18T10:35:12;9.77;;;1.92;;
71462;SDS011;59266;52.608;13.260;2023-05-18T10:37:40;11.25;;;1.60;;
71462;SDS011;59266;52.608;13.260;2023-05-18T10:40:12;7.70;;;1.80;;
71462;SDS011;59266;52.608;13.260;2023-05-18T10:42:40;10.48;;;1.73;;
71462;SDS011;59266;52.608;13.260;2023-05-18T10:45:08;7.63;;;1.70;;
71462;SDS011;59266;52.608;13.260;2023-05-18T10:47:35;6.68;;;1.85;;
71462;SDS011;59266;52.608;13.260;2023-05-18T10:50:07;7.45;;;1.40;;
71462;SDS011;59266;52.608;13.260;2023-05-18T10:52:38;6.35;;;1.33;;
71462;SDS011;59266;52.608;13.260;2023-05-18T10:55:06;7.78;;;1.50;;
71462;SDS011;59266;52.608;13.260;2023-05-18T10:57:38;6.53;;;1.45;;
71462;SDS011;59266;52.608;13.260;2023-05-18T11:00:08;5.82;;;1.38;;
71462;SDS011;59266;52.608;13.260;2023-05-18T11:02:39;5.20;;;1.33;;
71462;SDS011;59266;52.608;13.260;2023-05-18T11:05:08;7.43;;;1.70;;
71462;SDS011;59266;52.608;13.260;2023-05-18T11:07:36;8.60;;;1.70;;
71462;SDS011;59266;52.608;13.260;2023-05-18T11:10:06;9.88;;;1.70;;
71462;SDS011;59266;52.608;13.260;2023-05-18T11:12:39;7.22;;;1.88;;
71462;SDS011;59266;52.608;13.260;2023-05-18T11:15:07;9.10;;;1.92;;
71462;SDS011;59266;52.608;13.260;2023-05-18T11:17:34;7.18;;;1.50;;
71462;SDS011;59266;52.608;13.260;2023-05-18T11:22:47;8.18;;;1.33;;
71462;SDS011;59266;52.608;13.260;2023-05-18T11:27:54;6.63;;;1.85;;
71462;SDS011;59266;52.608;13.260;2023-05-18T11:30:43;9.95;;;1.67;;
71462;SDS011;59266;52.608;13.260;2023-05-18T11:33:27;6.63;;;1.40;;
71462;SDS011;59266;52.608;13.260;2023-05-18T11:38:46;7.43;;;1.88;;
71462;SDS011;59266;52.608;13.260;2023-05-18T11:46:32;10.07;;;1.63;;
71462;SDS011;59266;52.608;13.260;2023-05-18T11:49:05;9.38;;;1.80;;
71462;SDS011;59266;52.608;13.260;2023-05-18T11:51:42;7.43;;;1.85;;
71462;SDS011;59266;52.608;13.260;2023-05-18T11:54:24;6.20;;;1.52;;
71462;SDS011;59266;52.608;13.260;2023-05-18T11:56:51;7.43;;;1.40;;
71462;SDS011;59266;52.608;13.260;2023-05-18T11:59:29;8.02;;;1.48;;
71462;SDS011;59266;52.608;13.260;2023-05-18T12:01:58;8.38;;;1.80;;
71462;SDS011;59266;52.608;13.260;2023-05-18T12:04:26;6.97;;;1.50;;
71462;SDS011;59266;52.608;13.260;2023-05-18T12:06:54;8.65;;;1.50;;
71462;SDS011;59266;52.608;13.260;2023-05-18T12:09:22;9.32;;;1.75;;
71462;SDS011;59266;52.608;13.260;2023-05-18T12:11:50;7.15;;;1.58;;
71462;SDS011;59266;52.608;13.260;2023-05-18T12:14:19;7.47;;;1.88;;
71462;SDS011;59266;52.608;13.260;2023-05-18T12:16:47;5.80;;;1.33;;
71462;SDS011;59266;52.608;13.260;2023-05-18T12:19:14;5.53;;;1.35;;
71462;SDS011;59266;52.608;13.260;2023-05-18T12:21:43;9.82;;;2.45;;
71462;SDS011;59266;52.608;13.260;2023-05-18T12:24:11;8.90;;;1.90;;
71462;SDS011;59266;52.608;13.260;2023-05-18T12:26:37;8.70;;;1.58;;
71462;SDS011;59266;52.608;13.260;2023-05-18T12:29:06;7.55;;;1.70;;
71462;SDS011;59266;52.608;13.260;2023-05-18T12:31:38;7.53;;;1.52;;
71462;SDS011;59266;52.608;13.260;2023-05-18T12:34:07;8.00;;;1.60;;
71462;SDS011;59266;52.608;13.260;2023-05-18T12:36:39;7.53;;;1.50;;
71462;SDS011;59266;52.608;13.260;2023-05-18T12:39:06;7.78;;;1.85;;
71462;SDS011;59266;52.608;13.260;2023-05-18T12:41:34;8.63;;;1.73;;
71462;SDS011;59266;52.608;13.260;2023-05-18T12:44:00;7.07;;;1.95;;
71462;SDS011;59266;52.608;13.260;2023-05-18T12:46:27;7.47;;;1.80;;
71462;SDS011;59266;52.608;13.260;2023-05-18T12:48:55;6.82;;;1.58;;
71462;SDS011;59266;52.608;13.260;2023-05-18T12:51:23;6.47;;;1.63;;
71462;SDS011;59266;52.608;13.260;2023-05-18T12:53:55;6.03;;;1.48;;
71462;SDS011;59266;52.608;13.260;2023-05-18T12:56:22;8.23;;;1.45;;
71462;SDS011;59266;52.608;13.260;2023-05-18T12:58:54;5.72;;;1.30;;
71462;SDS011;59266;52.608;13.260;2023-05-18T13:01:22;6.22;;;1.50;;
71462;SDS011;59266;52.608;13.260;2023-05-18T13:03:54;7.63;;;1.90;;
71462;SDS011;59266;52.608;13.260;2023-05-18T13:06:22;6.07;;;1.65;;
71462;SDS011;59266;52.608;13.260;2023-05-18T13:08:53;8.38;;;1.40;;
71462;SDS011;59266;52.608;13.260;2023-05-18T13:11:23;9.43;;;1.52;;
71462;SDS011;59266;52.608;13.260;2023-05-18T13:16:30;6.35;;;1.63;;
71462;SDS011;59266;52.608;13.260;2023-05-18T13:18:59;6.95;;;1.65;;
71462;SDS011;59266;52.608;13.260;2023-05-18T13:21:27;5.50;;;1.48;;
71462;SDS011;59266;52.608;13.260;2023-05-18T13:23:55;8.27;;;1.73;;
71462;SDS011;59266;52.608;13.260;2023-05-18T13:26:22;7.72;;;1.50;;
71462;SDS011;59266;52.608;13.260;2023-05-18T13:28:51;9.55;;;1.52;;
71462;SDS011;59266;52.608;13.260;2023-05-18T13:31:19;9.07;;;1.90;;
71462;SDS011;59266;52.608;13.260;2023-05-18T13:33:46;8.30;;;1.35;;
71462;SDS011;59266;52.608;13.260;2023-05-18T13:36:13;9.00;;;1.75;;
71462;SDS011;59266;52.608;13.260;2023-05-18T13:38:40;6.22;;;1.50;;
71462;SDS011;59266;52.608;13.260;2023-05-18T13:41:11;8.55;;;1.40;;
71462;SDS011;59266;52.608;13.260;2023-05-18T13:43:40;10.27;;;1.42;;
71462;SDS011;59266;52.608;13.260;2023-05-18T13:46:09;9.18;;;1.92;;
71462;SDS011;59266;52.608;13.260;2023-05-18T13:48:36;6.53;;;1.60;;
71462;SDS011;59266;52.608;13.260;2023-05-18T13:51:02;7.35;;;1.42;;
71462;SDS011;59266;52.608;13.260;2023-05-18T13:53:30;6.07;;;1.48;;
71462;SDS011;59266;52.608;13.260;2023-05-18T13:55:57;6.38;;;1.40;;
71462;SDS011;59266;52.608;13.260;2023-05-18T13:58:23;7.05;;;1.55;;
71462;SDS011;59266;52.608;13.260;2023-05-18T14:00:50;6.07;;;1.40;;
71462;SDS011;59266;52.608;13.260;2023-05-18T14:03:19;6.82;;;1.30;;
71462;SDS011;59266;52.608;13.260;2023-05-18T14:05:45;8.32;;;1.65;;
71462;SDS011;59266;52.608;13.260;2023-05-18T14:08:13;6.53;;;1.42;;
71462;SDS011;59266;52.608;13.260;2023-05-18T14:10:40;7.35;;;1.60;;
71462;SDS011;59266;52.608;13.260;2023-05-18T14:13:06;6.63;;;1.63;;
71462;SDS011;59266;52.608;13.260;2023-05-18T14:15:34;10.27;;;1.40;;
71462;SDS011;59266;52.608;13.260;2023-05-18T14:18:01;9.02;;;1.70;;
71462;SDS011;59266;52.608;13.260;2023-05-18T14:20:28;8.02;;;1.50;;
71462;SDS011;59266;52.608;13.260;2023-05-18T14:22:55;6.75;;;1.58;;
71462;SDS011;59266;52.608;13.260;2023-05-18T14:25:22;6.47;;;1.50;;
71462;SDS011;59266;52.608;13.260;2023-05-18T14:27:48;5.65;;;1.30;;
71462;SDS011;59266;52.608;13.260;2023-05-18T14:30:15;5.55;;;1.60;;
71462;SDS011;59266;52.608;13.260;2023-05-18T14:32:42;7.00;;;1.60;;
71462;SDS011;59266;52.608;13.260;2023-05-18T14:35:09;7.82;;;1.73;;
71462;SDS011;59266;52.608;13.260;2023-05-18T14:37:36;7.18;;;1.73;;
71462;SDS011;59266;52.608;13.260;2023-05-18T14:40:02;9.02;;;1.30;;
71462;SDS011;59266;52.608;13.260;2023-05-18T14:42:33;4.45;;;1.30;;
71462;SDS011;59266;52.608;13.260;2023-05-18T14:45:01;4.50;;;1.50;;
71462;SDS011;59266;52.608;13.260;2023-05-18T14:47:28;5.93;;;1.73;;
71462;SDS011;59266;52.608;13.260;2023-05-18T14:49:56;6.82;;;1.40;;
71462;SDS011;59266;52.608;13.260;2023-05-18T14:52:22;5.50;;;1.30;;
71462;SDS011;59266;52.608;13.260;2023-05-18T14:54:49;6.47;;;1.45;;
71462;SDS011;59266;52.608;13.260;2023-05-18T14:57:17;7.47;;;1.33;;
71462;SDS011;59266;52.608;13.260;2023-05-18T14:59:44;6.50;;;1.60;;
71462;SDS011;59266;52.608;13.260;2023-05-18T15:02:10;5.03;;;1.40;;